sensor_id;sensor_type;location;lat;lon;timestamp;P1;durP1;ratioP1;P2;durP2;ratioP2
17842;SDS011;69286;48.222;16.332;2023-05-23T00:01:52;17.53;;;9.50;;
17842;SDS011;69286;48.222;16.332;2023-05-23T00:04:22;14.83;;;8.80;;
17842;SDS011;69286;48.222;16.332;2023-05-23T00:06:51;13.53;;;8.77;;
17842;SDS011;69286;48.222;16.332;2023-05-23T00:09:18;14.40;;;8.57;;
17842;SDS011;69286;48.222;16.332;2023-05-23T00:11:45;14.70;;;8.50;;
17842;SDS011;69286;48.222;16.332;2023-05-23T00:14:12;11.80;;;8.30;;
17842;SDS011;69286;48.222;16.332;2023-05-23T00:16:40;13.97;;;8.23;;
17842;SDS011;69286;48.222;16.332;2023-05-23T00:19:10;12.90;;;8.43;;
17842;SDS011;69286;48.222;16.332;2023-05-23T00:21:39;12.13;;;8.47;;
17842;SDS011;69286;48.222;16.332;2023-05-23T00:24:07;14.13;;;9.07;;
17842;SDS011;69286;48.222;16.332;2023-05-23T00:26:34;11.67;;;8.57;;
17842;SDS011;69286;48.222;16.332;2023-05-23T00:29:02;13.03;;;8.17;;
17842;SDS011;69286;48.222;16.332;2023-05-23T00:31:29;14.83;;;8.93;;
17842;SDS011;69286;48.222;16.332;2023-05-23T00:33:56;12.97;;;8.37;;
17842;SDS011;69286;48.222;16.332;2023-05-23T00:36:24;15.73;;;8.80;;
17842;SDS011;69286;48.222;16.332;2023-05-23T00:38:51;14.10;;;8.43;;
17842;SDS011;69286;48.222;16.332;2023-05-23T00:41:19;13.30;;;9.17;;
17842;SDS011;69286;48.222;16.332;2023-05-23T00:43:46;18.50;;;9.07;;
17842;SDS011;69286;48.222;16.332;2023-05-23T00:46:13;17.60;;;8.87;;
17842;SDS011;69286;48.222;16.332;2023-05-23T00:48:41;14.50;;;8.20;;
17842;SDS011;69286;48.222;16.332;2023-05-23T00:51:08;12.80;;;8.00;;
17842;SDS011;69286;48.222;16.332;2023-05-23T00:53:37;11.23;;;7.43;;
17842;SDS011;69286;48.222;16.332;2023-05-23T00:56:04;14.03;;;8.10;;
17842;SDS011;69286;48.222;16.332;2023-05-23T00:58:31;16.03;;;8.97;;
17842;SDS011;69286;48.222;16.332;2023-05-23T01:00:57;13.00;;;7.47;;
17842;SDS011;69286;48.222;16.332;2023-05-23T01:03:25;15.57;;;8.30;;
17842;SDS011;69286;48.222;16.332;2023-05-23T01:05:53;11.93;;;8.70;;
17842;SDS011;69286;48.222;16.332;2023-05-23T01:08:20;11.80;;;8.13;;
17842;SDS011;69286;48.222;16.332;2023-05-23T01:10:48;12.97;;;7.80;;
17842;SDS011;69286;48.222;16.332;2023-05-23T01:13:21;13.80;;;7.40;;
17842;SDS011;69286;48.222;16.332;2023-05-23T01:15:59;14.90;;;7.63;;
17842;SDS011;69286;48.222;16.332;2023-05-23T01:18:32;10.43;;;7.20;;
17842;SDS011;69286;48.222;16.332;2023-05-23T01:21:05;11.40;;;8.10;;
17842;SDS011;69286;48.222;16.332;2023-05-23T01:23:54;11.97;;;8.03;;
17842;SDS011;69286;48.222;16.332;2023-05-23T01:26:44;11.13;;;8.37;;
17842;SDS011;69286;48.222;16.332;2023-05-23T01:29:27;11.97;;;7.83;;
17842;SDS011;69286;48.222;16.332;2023-05-23T01:31:58;14.43;;;8.13;;
17842;SDS011;69286;48.222;16.332;2023-05-23T01:34:26;12.70;;;8.30;;
17842;SDS011;69286;48.222;16.332;2023-05-23T01:36:55;10.37;;;8.03;;
17842;SDS011;69286;48.222;16.332;2023-05-23T01:39:22;21.33;;;8.47;;
17842;SDS011;69286;48.222;16.332;2023-05-23T01:41:49;9.77;;;7.70;;
17842;SDS011;69286;48.222;16.332;2023-05-23T01:44:18;11.00;;;7.87;;
17842;SDS011;69286;48.222;16.332;2023-05-23T01:46:46;13.70;;;8.40;;
17842;SDS011;69286;48.222;16.332;2023-05-23T01:49:14;10.17;;;7.70;;
17842;SDS011;69286;48.222;16.332;2023-05-23T01:51:43;13.63;;;8.17;;
17842;SDS011;69286;48.222;16.332;2023-05-23T01:54:11;9.90;;;7.90;;
17842;SDS011;69286;48.222;16.332;2023-05-23T01:56:40;14.13;;;9.20;;
17842;SDS011;69286;48.222;16.332;2023-05-23T01:59:08;14.93;;;8.50;;
17842;SDS011;69286;48.222;16.332;2023-05-23T02:01:35;12.87;;;8.97;;
17842;SDS011;69286;48.222;16.332;2023-05-23T02:04:04;11.07;;;8.17;;
17842;SDS011;69286;48.222;16.332;2023-05-23T02:06:31;10.67;;;7.13;;
17842;SDS011;69286;48.222;16.332;2023-05-23T02:08:59;12.90;;;8.00;;
17842;SDS011;69286;48.222;16.332;2023-05-23T02:11:25;18.60;;;7.83;;
17842;SDS011;69286;48.222;16.332;2023-05-23T02:13:52;10.47;;;8.20;;
17842;SDS011;69286;48.222;16.332;2023-05-23T02:16:19;14.03;;;7.77;;
17842;SDS011;69286;48.222;16.332;2023-05-23T02:18:47;15.73;;;7.97;;
17842;SDS011;69286;48.222;16.332;2023-05-23T02:21:18;9.97;;;8.03;;
17842;SDS011;69286;48.222;16.332;2023-05-23T02:23:45;12.47;;;8.97;;
17842;SDS011;69286;48.222;16.332;2023-05-23T02:26:12;9.60;;;7.53;;
17842;SDS011;69286;48.222;16.332;2023-05-23T02:28:38;15.00;;;8.30;;
17842;SDS011;69286;48.222;16.332;2023-05-23T02:31:06;12.77;;;8.00;;
17842;SDS011;69286;48.222;16.332;2023-05-23T02:33:33;13.40;;;7.97;;
17842;SDS011;69286;48.222;16.332;2023-05-23T02:35:59;10.37;;;7.50;;
17842;SDS011;69286;48.222;16.332;2023-05-23T02:38:28;13.63;;;8.47;;
17842;SDS011;69286;48.222;16.332;2023-05-23T02:40:55;12.47;;;8.67;;
17842;SDS011;69286;48.222;16.332;2023-05-23T02:43:22;12.53;;;8.17;;
17842;SDS011;69286;48.222;16.332;2023-05-23T02:45:49;11.40;;;8.77;;
17842;SDS011;69286;48.222;16.332;2023-05-23T02:48:16;10.50;;;7.70;;
17842;SDS011;69286;48.222;16.332;2023-05-23T02:50:43;9.90;;;8.07;;
17842;SDS011;69286;48.222;16.332;2023-05-23T02:53:10;12.50;;;8.10;;
17842;SDS011;69286;48.222;16.332;2023-05-23T02:55:38;9.57;;;7.47;;
17842;SDS011;69286;48.222;16.332;2023-05-23T02:58:06;9.83;;;7.43;;
17842;SDS011;69286;48.222;16.332;2023-05-23T03:00:33;11.27;;;8.10;;
17842;SDS011;69286;48.222;16.332;2023-05-23T03:03:01;9.93;;;7.53;;
17842;SDS011;69286;48.222;16.332;2023-05-23T03:05:28;11.57;;;8.03;;
17842;SDS011;69286;48.222;16.332;2023-05-23T03:07:55;14.07;;;8.23;;
17842;SDS011;69286;48.222;16.332;2023-05-23T03:10:21;10.90;;;8.23;;
17842;SDS011;69286;48.222;16.332;2023-05-23T03:12:50;11.67;;;7.80;;
17842;SDS011;69286;48.222;16.332;2023-05-23T03:15:17;12.53;;;7.43;;
17842;SDS011;69286;48.222;16.332;2023-05-23T03:17:44;11.57;;;7.67;;
17842;SDS011;69286;48.222;16.332;2023-05-23T03:20:11;11.77;;;8.37;;
17842;SDS011;69286;48.222;16.332;2023-05-23T03:22:39;10.47;;;8.10;;
17842;SDS011;69286;48.222;16.332;2023-05-23T03:25:07;15.53;;;8.50;;
17842;SDS011;69286;48.222;16.332;2023-05-23T03:27:34;12.30;;;8.33;;
17842;SDS011;69286;48.222;16.332;2023-05-23T03:30:03;14.13;;;8.70;;
17842;SDS011;69286;48.222;16.332;2023-05-23T03:32:31;12.33;;;8.23;;
17842;SDS011;69286;48.222;16.332;2023-05-23T03:34:57;12.13;;;8.27;;
17842;SDS011;69286;48.222;16.332;2023-05-23T03:37:24;10.33;;;7.57;;
17842;SDS011;69286;48.222;16.332;2023-05-23T03:39:51;12.37;;;8.30;;
17842;SDS011;69286;48.222;16.332;2023-05-23T03:42:18;12.37;;;7.90;;
17842;SDS011;69286;48.222;16.332;2023-05-23T03:44:45;11.80;;;8.20;;
17842;SDS011;69286;48.222;16.332;2023-05-23T03:47:13;13.87;;;8.53;;
17842;SDS011;69286;48.222;16.332;2023-05-23T03:49:40;13.53;;;8.50;;
17842;SDS011;69286;48.222;16.332;2023-05-23T03:52:09;14.23;;;8.60;;
17842;SDS011;69286;48.222;16.332;2023-05-23T03:54:36;11.83;;;8.37;;
17842;SDS011;69286;48.222;16.332;2023-05-23T03:57:03;10.97;;;8.00;;
17842;SDS011;69286;48.222;16.332;2023-05-23T03:59:30;11.97;;;8.07;;
17842;SDS011;69286;48.222;16.332;2023-05-23T04:01:57;14.77;;;8.57;;
17842;SDS011;69286;48.222;16.332;2023-05-23T04:04:26;18.00;;;8.60;;
17842;SDS011;69286;48.222;16.332;2023-05-23T04:06:53;14.47;;;7.83;;
17842;SDS011;69286;48.222;16.332;2023-05-23T04:09:20;14.67;;;7.80;;
17842;SDS011;69286;48.222;16.332;2023-05-23T04:11:47;11.93;;;8.23;;
17842;SDS011;69286;48.222;16.332;2023-05-23T04:14:14;11.10;;;7.53;;
17842;SDS011;69286;48.222;16.332;2023-05-23T04:16:41;11.47;;;8.33;;
17842;SDS011;69286;48.222;16.332;2023-05-23T04:19:08;13.73;;;7.97;;
17842;SDS011;69286;48.222;16.332;2023-05-23T04:21:37;10.00;;;7.43;;
17842;SDS011;69286;48.222;16.332;2023-05-23T04:24:04;13.80;;;8.10;;
17842;SDS011;69286;48.222;16.332;2023-05-23T04:26:32;11.70;;;8.83;;
17842;SDS011;69286;48.222;16.332;2023-05-23T04:29:00;9.80;;;8.10;;
17842;SDS011;69286;48.222;16.332;2023-05-23T04:31:27;16.37;;;8.57;;
17842;SDS011;69286;48.222;16.332;2023-05-23T04:33:54;16.80;;;8.53;;
17842;SDS011;69286;48.222;16.332;2023-05-23T04:36:21;13.13;;;8.03;;
17842;SDS011;69286;48.222;16.332;2023-05-23T04:38:51;11.47;;;7.53;;
17842;SDS011;69286;48.222;16.332;2023-05-23T04:41:18;16.43;;;8.80;;
17842;SDS011;69286;48.222;16.332;2023-05-23T04:43:47;11.23;;;7.80;;
17842;SDS011;69286;48.222;16.332;2023-05-23T04:46:18;17.97;;;8.60;;
17842;SDS011;69286;48.222;16.332;2023-05-23T04:48:50;11.27;;;8.07;;
17842;SDS011;69286;48.222;16.332;2023-05-23T04:51:18;14.63;;;8.10;;
17842;SDS011;69286;48.222;16.332;2023-05-23T04:53:46;12.13;;;8.10;;
17842;SDS011;69286;48.222;16.332;2023-05-23T04:56:14;11.50;;;8.07;;
17842;SDS011;69286;48.222;16.332;2023-05-23T04:58:44;10.80;;;8.27;;
17842;SDS011;69286;48.222;16.332;2023-05-23T05:01:12;13.27;;;8.63;;
17842;SDS011;69286;48.222;16.332;2023-05-23T05:03:39;11.67;;;8.30;;
17842;SDS011;69286;48.222;16.332;2023-05-23T05:06:06;15.97;;;9.13;;
17842;SDS011;69286;48.222;16.332;2023-05-23T05:08:33;15.43;;;10.17;;
17842;SDS011;69286;48.222;16.332;2023-05-23T05:11:00;16.00;;;10.37;;
17842;SDS011;69286;48.222;16.332;2023-05-23T05:13:29;14.23;;;10.17;;
17842;SDS011;69286;48.222;16.332;2023-05-23T05:15:55;15.83;;;11.30;;
17842;SDS011;69286;48.222;16.332;2023-05-23T05:18:22;15.50;;;10.90;;
17842;SDS011;69286;48.222;16.332;2023-05-23T05:20:51;19.80;;;11.40;;
17842;SDS011;69286;48.222;16.332;2023-05-23T05:23:18;16.87;;;11.03;;
17842;SDS011;69286;48.222;16.332;2023-05-23T05:25:45;19.93;;;11.90;;
17842;SDS011;69286;48.222;16.332;2023-05-23T05:28:12;21.03;;;10.77;;
17842;SDS011;69286;48.222;16.332;2023-05-23T05:30:40;19.87;;;10.80;;
17842;SDS011;69286;48.222;16.332;2023-05-23T05:33:07;16.73;;;12.03;;
17842;SDS011;69286;48.222;16.332;2023-05-23T05:35:34;20.90;;;11.53;;
17842;SDS011;69286;48.222;16.332;2023-05-23T05:38:02;15.83;;;10.70;;
17842;SDS011;69286;48.222;16.332;2023-05-23T05:40:29;24.10;;;12.70;;
17842;SDS011;69286;48.222;16.332;2023-05-23T05:42:57;15.83;;;10.00;;
17842;SDS011;69286;48.222;16.332;2023-05-23T05:45:24;23.10;;;11.53;;
17842;SDS011;69286;48.222;16.332;2023-05-23T05:47:52;18.13;;;11.83;;
17842;SDS011;69286;48.222;16.332;2023-05-23T05:50:19;14.23;;;10.60;;
17842;SDS011;69286;48.222;16.332;2023-05-23T05:52:46;18.67;;;11.60;;
17842;SDS011;69286;48.222;16.332;2023-05-23T05:55:13;19.87;;;12.00;;
17842;SDS011;69286;48.222;16.332;2023-05-23T05:57:40;18.53;;;12.13;;
17842;SDS011;69286;48.222;16.332;2023-05-23T06:00:08;21.90;;;11.70;;
17842;SDS011;69286;48.222;16.332;2023-05-23T06:02:38;17.73;;;12.53;;
17842;SDS011;69286;48.222;16.332;2023-05-23T06:05:09;20.87;;;11.43;;
17842;SDS011;69286;48.222;16.332;2023-05-23T06:07:37;37.63;;;12.93;;
17842;SDS011;69286;48.222;16.332;2023-05-23T06:10:04;20.60;;;11.20;;
17842;SDS011;69286;48.222;16.332;2023-05-23T06:12:32;19.60;;;11.60;;
17842;SDS011;69286;48.222;16.332;2023-05-23T06:14:59;16.63;;;11.30;;
17842;SDS011;69286;48.222;16.332;2023-05-23T06:17:27;18.77;;;11.23;;
17842;SDS011;69286;48.222;16.332;2023-05-23T06:19:54;16.33;;;11.70;;
17842;SDS011;69286;48.222;16.332;2023-05-23T06:22:22;17.27;;;11.13;;
17842;SDS011;69286;48.222;16.332;2023-05-23T06:24:49;25.33;;;11.33;;
17842;SDS011;69286;48.222;16.332;2023-05-23T06:27:16;23.03;;;11.87;;
17842;SDS011;69286;48.222;16.332;2023-05-23T06:29:43;17.80;;;11.50;;
17842;SDS011;69286;48.222;16.332;2023-05-23T06:32:10;18.73;;;10.83;;
17842;SDS011;69286;48.222;16.332;2023-05-23T06:34:37;20.15;;;10.73;;
17842;SDS011;69286;48.222;16.332;2023-05-23T06:37:04;18.48;;;10.18;;
17842;SDS011;69286;48.222;16.332;2023-05-23T06:39:32;17.75;;;10.10;;
17842;SDS011;69286;48.222;16.332;2023-05-23T06:41:59;16.00;;;10.13;;
17842;SDS011;69286;48.222;16.332;2023-05-23T06:44:26;13.13;;;9.50;;
17842;SDS011;69286;48.222;16.332;2023-05-23T06:46:53;17.77;;;9.80;;
17842;SDS011;69286;48.222;16.332;2023-05-23T06:49:22;15.23;;;9.63;;
17842;SDS011;69286;48.222;16.332;2023-05-23T06:51:50;15.35;;;10.70;;
17842;SDS011;69286;48.222;16.332;2023-05-23T06:54:17;16.00;;;9.10;;
17842;SDS011;69286;48.222;16.332;2023-05-23T06:56:45;10.38;;;8.02;;
17842;SDS011;69286;48.222;16.332;2023-05-23T06:59:12;14.45;;;8.35;;
17842;SDS011;69286;48.222;16.332;2023-05-23T07:01:39;15.05;;;8.73;;
17842;SDS011;69286;48.222;16.332;2023-05-23T07:04:06;12.43;;;8.15;;
17842;SDS011;69286;48.222;16.332;2023-05-23T07:06:33;12.52;;;7.43;;
17842;SDS011;69286;48.222;16.332;2023-05-23T07:09:01;11.70;;;6.82;;
17842;SDS011;69286;48.222;16.332;2023-05-23T07:11:29;10.07;;;6.20;;
17842;SDS011;69286;48.222;16.332;2023-05-23T07:13:57;14.68;;;6.50;;
17842;SDS011;69286;48.222;16.332;2023-05-23T07:16:24;8.55;;;6.00;;
17842;SDS011;69286;48.222;16.332;2023-05-23T07:18:51;10.35;;;5.97;;
17842;SDS011;69286;48.222;16.332;2023-05-23T07:21:18;7.88;;;6.07;;
17842;SDS011;69286;48.222;16.332;2023-05-23T07:23:45;8.75;;;6.07;;
17842;SDS011;69286;48.222;16.332;2023-05-23T07:26:12;6.75;;;5.93;;
17842;SDS011;69286;48.222;16.332;2023-05-23T07:28:39;10.55;;;5.72;;
17842;SDS011;69286;48.222;16.332;2023-05-23T07:31:08;7.50;;;5.85;;
17842;SDS011;69286;48.222;16.332;2023-05-23T07:33:36;7.85;;;5.30;;
17842;SDS011;69286;48.222;16.332;2023-05-23T07:36:03;5.82;;;5.20;;
17842;SDS011;69286;48.222;16.332;2023-05-23T07:38:30;6.05;;;5.32;;
17842;SDS011;69286;48.222;16.332;2023-05-23T07:40:57;16.05;;;5.93;;
17842;SDS011;69286;48.222;16.332;2023-05-23T07:43:24;9.02;;;5.70;;
17842;SDS011;69286;48.222;16.332;2023-05-23T07:45:51;7.25;;;5.45;;
17842;SDS011;69286;48.222;16.332;2023-05-23T07:48:19;10.77;;;5.97;;
17842;SDS011;69286;48.222;16.332;2023-05-23T07:50:46;8.15;;;5.80;;
17842;SDS011;69286;48.222;16.332;2023-05-23T07:53:13;6.18;;;5.25;;
17842;SDS011;69286;48.222;16.332;2023-05-23T07:55:40;7.50;;;5.40;;
17842;SDS011;69286;48.222;16.332;2023-05-23T07:58:07;9.32;;;5.90;;
17842;SDS011;69286;48.222;16.332;2023-05-23T08:00:34;6.03;;;5.43;;
17842;SDS011;69286;48.222;16.332;2023-05-23T08:03:01;10.98;;;6.13;;
17842;SDS011;69286;48.222;16.332;2023-05-23T08:05:29;5.55;;;5.00;;
17842;SDS011;69286;48.222;16.332;2023-05-23T08:07:58;6.22;;;5.40;;
17842;SDS011;69286;48.222;16.332;2023-05-23T08:10:25;6.57;;;5.88;;
17842;SDS011;69286;48.222;16.332;2023-05-23T08:12:54;9.85;;;6.07;;
17842;SDS011;69286;48.222;16.332;2023-05-23T08:15:24;6.00;;;5.40;;
17842;SDS011;69286;48.222;16.332;2023-05-23T08:17:52;6.97;;;6.15;;
17842;SDS011;69286;48.222;16.332;2023-05-23T08:20:21;8.93;;;5.95;;
17842;SDS011;69286;48.222;16.332;2023-05-23T08:22:55;6.82;;;6.03;;
17842;SDS011;69286;48.222;16.332;2023-05-23T08:25:23;8.68;;;5.80;;
17842;SDS011;69286;48.222;16.332;2023-05-23T08:27:54;7.82;;;5.97;;
17842;SDS011;69286;48.222;16.332;2023-05-23T08:30:22;6.57;;;5.38;;
17842;SDS011;69286;48.222;16.332;2023-05-23T08:32:50;7.38;;;6.15;;
17842;SDS011;69286;48.222;16.332;2023-05-23T08:35:18;9.68;;;6.35;;
17842;SDS011;69286;48.222;16.332;2023-05-23T08:37:45;11.02;;;5.78;;
17842;SDS011;69286;48.222;16.332;2023-05-23T08:40:16;8.30;;;5.82;;
17842;SDS011;69286;48.222;16.332;2023-05-23T08:42:45;6.70;;;5.75;;
17842;SDS011;69286;48.222;16.332;2023-05-23T08:45:12;10.10;;;6.85;;
17842;SDS011;69286;48.222;16.332;2023-05-23T08:47:41;7.13;;;6.03;;
17842;SDS011;69286;48.222;16.332;2023-05-23T08:50:10;12.88;;;6.72;;
17842;SDS011;69286;48.222;16.332;2023-05-23T08:52:40;10.40;;;6.75;;
17842;SDS011;69286;48.222;16.332;2023-05-23T08:55:10;8.05;;;5.80;;
17842;SDS011;69286;48.222;16.332;2023-05-23T08:57:38;9.57;;;5.82;;
17842;SDS011;69286;48.222;16.332;2023-05-23T09:00:08;9.45;;;6.40;;
17842;SDS011;69286;48.222;16.332;2023-05-23T09:02:39;10.13;;;6.50;;
17842;SDS011;69286;48.222;16.332;2023-05-23T09:05:06;7.80;;;6.15;;
17842;SDS011;69286;48.222;16.332;2023-05-23T09:07:34;9.45;;;6.13;;
17842;SDS011;69286;48.222;16.332;2023-05-23T09:10:02;10.57;;;6.22;;
17842;SDS011;69286;48.222;16.332;2023-05-23T09:12:31;11.40;;;6.63;;
17842;SDS011;69286;48.222;16.332;2023-05-23T09:14:59;12.05;;;6.28;;
17842;SDS011;69286;48.222;16.332;2023-05-23T09:17:26;8.30;;;6.18;;
17842;SDS011;69286;48.222;16.332;2023-05-23T09:19:53;8.55;;;6.40;;
17842;SDS011;69286;48.222;16.332;2023-05-23T09:22:22;8.27;;;6.40;;
17842;SDS011;69286;48.222;16.332;2023-05-23T09:24:51;13.57;;;7.20;;
17842;SDS011;69286;48.222;16.332;2023-05-23T09:27:18;9.57;;;6.53;;
17842;SDS011;69286;48.222;16.332;2023-05-23T09:29:45;8.05;;;6.88;;
17842;SDS011;69286;48.222;16.332;2023-05-23T09:32:14;7.15;;;6.43;;
17842;SDS011;69286;48.222;16.332;2023-05-23T09:34:50;7.72;;;6.45;;
17842;SDS011;69286;48.222;16.332;2023-05-23T09:37:21;9.07;;;6.60;;
17842;SDS011;69286;48.222;16.332;2023-05-23T09:39:48;11.40;;;6.55;;
17842;SDS011;69286;48.222;16.332;2023-05-23T09:42:19;14.02;;;6.53;;
17842;SDS011;69286;48.222;16.332;2023-05-23T09:44:47;9.10;;;6.85;;
17842;SDS011;69286;48.222;16.332;2023-05-23T09:47:16;7.63;;;6.80;;
17842;SDS011;69286;48.222;16.332;2023-05-23T09:49:43;7.28;;;6.28;;
17842;SDS011;69286;48.222;16.332;2023-05-23T09:52:10;8.57;;;7.53;;
17842;SDS011;69286;48.222;16.332;2023-05-23T09:54:37;13.05;;;7.00;;
17842;SDS011;69286;48.222;16.332;2023-05-23T09:57:05;10.55;;;6.82;;
17842;SDS011;69286;48.222;16.332;2023-05-23T09:59:36;7.50;;;6.47;;
17842;SDS011;69286;48.222;16.332;2023-05-23T10:02:05;9.93;;;6.57;;
17842;SDS011;69286;48.222;16.332;2023-05-23T10:04:34;14.68;;;7.28;;
17842;SDS011;69286;48.222;16.332;2023-05-23T10:07:04;9.68;;;7.47;;
17842;SDS011;69286;48.222;16.332;2023-05-23T10:09:38;7.88;;;7.07;;
17842;SDS011;69286;48.222;16.332;2023-05-23T10:15:08;8.43;;;7.13;;
17842;SDS011;69286;48.222;16.332;2023-05-23T10:17:39;9.18;;;6.88;;
17842;SDS011;69286;48.222;16.332;2023-05-23T10:20:19;7.32;;;6.63;;
17842;SDS011;69286;48.222;16.332;2023-05-23T10:22:50;8.63;;;7.10;;
17842;SDS011;69286;48.222;16.332;2023-05-23T10:25:18;7.85;;;7.05;;
17842;SDS011;69286;48.222;16.332;2023-05-23T10:27:45;12.45;;;7.00;;
17842;SDS011;69286;48.222;16.332;2023-05-23T10:30:14;10.20;;;7.03;;
17842;SDS011;69286;48.222;16.332;2023-05-23T10:32:41;10.85;;;7.47;;
17842;SDS011;69286;48.222;16.332;2023-05-23T10:35:09;8.73;;;7.30;;
17842;SDS011;69286;48.222;16.332;2023-05-23T10:37:45;10.80;;;7.82;;
17842;SDS011;69286;48.222;16.332;2023-05-23T10:40:20;12.20;;;8.00;;
17842;SDS011;69286;48.222;16.332;2023-05-23T10:42:55;11.95;;;7.38;;
17842;SDS011;69286;48.222;16.332;2023-05-23T10:45:28;10.65;;;7.47;;
17842;SDS011;69286;48.222;16.332;2023-05-23T10:47:55;10.82;;;7.15;;
17842;SDS011;69286;48.222;16.332;2023-05-23T10:53:08;10.85;;;7.78;;
17842;SDS011;69286;48.222;16.332;2023-05-23T10:55:41;10.18;;;7.68;;
17842;SDS011;69286;48.222;16.332;2023-05-23T10:58:14;10.52;;;7.82;;
17842;SDS011;69286;48.222;16.332;2023-05-23T11:00:49;10.95;;;7.90;;
17842;SDS011;69286;48.222;16.332;2023-05-23T11:03:18;13.52;;;7.63;;
17842;SDS011;69286;48.222;16.332;2023-05-23T11:05:55;14.32;;;7.78;;
17842;SDS011;69286;48.222;16.332;2023-05-23T11:08:24;9.10;;;7.93;;
17842;SDS011;69286;48.222;16.332;2023-05-23T11:10:51;10.48;;;7.35;;
17842;SDS011;69286;48.222;16.332;2023-05-23T11:13:19;13.07;;;7.93;;
17842;SDS011;69286;48.222;16.332;2023-05-23T11:15:47;14.85;;;7.97;;
17842;SDS011;69286;48.222;16.332;2023-05-23T11:18:21;14.23;;;7.80;;
17842;SDS011;69286;48.222;16.332;2023-05-23T11:20:50;21.30;;;9.05;;
17842;SDS011;69286;48.222;16.332;2023-05-23T11:23:18;12.73;;;8.35;;
17842;SDS011;69286;48.222;16.332;2023-05-23T11:25:48;12.68;;;7.82;;
17842;SDS011;69286;48.222;16.332;2023-05-23T11:28:16;13.25;;;7.78;;
17842;SDS011;69286;48.222;16.332;2023-05-23T11:30:45;8.75;;;7.38;;
17842;SDS011;69286;48.222;16.332;2023-05-23T11:33:13;8.40;;;6.10;;
17842;SDS011;69286;48.222;16.332;2023-05-23T11:35:42;9.20;;;5.90;;
17842;SDS011;69286;48.222;16.332;2023-05-23T11:38:11;6.72;;;5.35;;
17842;SDS011;69286;48.222;16.332;2023-05-23T11:40:39;9.20;;;5.20;;
17842;SDS011;69286;48.222;16.332;2023-05-23T11:43:09;11.23;;;6.45;;
17842;SDS011;69286;48.222;16.332;2023-05-23T11:45:37;10.32;;;6.75;;
17842;SDS011;69286;48.222;16.332;2023-05-23T11:48:05;9.25;;;6.18;;
17842;SDS011;69286;48.222;16.332;2023-05-23T11:50:33;10.38;;;6.70;;
17842;SDS011;69286;48.222;16.332;2023-05-23T11:53:08;8.82;;;6.63;;
17842;SDS011;69286;48.222;16.332;2023-05-23T11:55:35;11.00;;;7.18;;
17842;SDS011;69286;48.222;16.332;2023-05-23T11:58:05;12.80;;;7.55;;
17842;SDS011;69286;48.222;16.332;2023-05-23T12:00:34;8.75;;;6.53;;
17842;SDS011;69286;48.222;16.332;2023-05-23T12:03:07;9.38;;;6.80;;
17842;SDS011;69286;48.222;16.332;2023-05-23T12:05:35;7.97;;;6.05;;
17842;SDS011;69286;48.222;16.332;2023-05-23T12:08:03;10.77;;;7.20;;
17842;SDS011;69286;48.222;16.332;2023-05-23T12:10:30;8.52;;;6.30;;
17842;SDS011;69286;48.222;16.332;2023-05-23T12:12:57;9.88;;;7.32;;
17842;SDS011;69286;48.222;16.332;2023-05-23T12:15:25;10.38;;;6.55;;
17842;SDS011;69286;48.222;16.332;2023-05-23T12:17:54;9.95;;;6.93;;
17842;SDS011;69286;48.222;16.332;2023-05-23T12:20:21;9.60;;;6.68;;
17842;SDS011;69286;48.222;16.332;2023-05-23T12:22:53;8.70;;;6.75;;
17842;SDS011;69286;48.222;16.332;2023-05-23T12:25:22;10.10;;;7.35;;
17842;SDS011;69286;48.222;16.332;2023-05-23T12:27:48;9.10;;;6.47;;
17842;SDS011;69286;48.222;16.332;2023-05-23T12:30:16;8.48;;;6.18;;
17842;SDS011;69286;48.222;16.332;2023-05-23T12:32:43;12.25;;;7.47;;
17842;SDS011;69286;48.222;16.332;2023-05-23T12:35:13;9.52;;;7.20;;
17842;SDS011;69286;48.222;16.332;2023-05-23T12:37:41;13.98;;;7.13;;
17842;SDS011;69286;48.222;16.332;2023-05-23T12:40:13;10.43;;;6.95;;
17842;SDS011;69286;48.222;16.332;2023-05-23T12:42:48;8.15;;;6.82;;
17842;SDS011;69286;48.222;16.332;2023-05-23T12:45:17;17.10;;;7.32;;
17842;SDS011;69286;48.222;16.332;2023-05-23T12:47:44;13.02;;;7.35;;
17842;SDS011;69286;48.222;16.332;2023-05-23T12:50:11;15.98;;;7.25;;
17842;SDS011;69286;48.222;16.332;2023-05-23T12:52:39;8.38;;;7.30;;
17842;SDS011;69286;48.222;16.332;2023-05-23T12:55:06;9.18;;;7.35;;
17842;SDS011;69286;48.222;16.332;2023-05-23T12:57:34;8.77;;;7.03;;
17842;SDS011;69286;48.222;16.332;2023-05-23T13:00:02;18.13;;;6.72;;
17842;SDS011;69286;48.222;16.332;2023-05-23T13:02:30;11.77;;;7.63;;
17842;SDS011;69286;48.222;16.332;2023-05-23T13:04:57;10.40;;;7.20;;
17842;SDS011;69286;48.222;16.332;2023-05-23T13:07:26;9.70;;;7.85;;
17842;SDS011;69286;48.222;16.332;2023-05-23T13:09:53;10.27;;;7.97;;
17842;SDS011;69286;48.222;16.332;2023-05-23T13:12:20;9.40;;;7.78;;
17842;SDS011;69286;48.222;16.332;2023-05-23T13:14:47;11.27;;;7.88;;
17842;SDS011;69286;48.222;16.332;2023-05-23T13:17:15;9.05;;;7.85;;
17842;SDS011;69286;48.222;16.332;2023-05-23T13:19:42;9.27;;;7.68;;
17842;SDS011;69286;48.222;16.332;2023-05-23T13:22:09;8.75;;;7.93;;
17842;SDS011;69286;48.222;16.332;2023-05-23T13:24:38;19.63;;;7.80;;
17842;SDS011;69286;48.222;16.332;2023-05-23T13:27:05;10.60;;;7.57;;
17842;SDS011;69286;48.222;16.332;2023-05-23T13:29:32;14.30;;;7.68;;
17842;SDS011;69286;48.222;16.332;2023-05-23T13:31:59;10.60;;;7.07;;
17842;SDS011;69286;48.222;16.332;2023-05-23T13:34:26;9.50;;;7.97;;
17842;SDS011;69286;48.222;16.332;2023-05-23T13:36:53;10.23;;;8.30;;
17842;SDS011;69286;48.222;16.332;2023-05-23T13:39:20;9.45;;;8.07;;
17842;SDS011;69286;48.222;16.332;2023-05-23T13:41:49;10.88;;;8.13;;
17842;SDS011;69286;48.222;16.332;2023-05-23T13:44:16;11.50;;;8.18;;
17842;SDS011;69286;48.222;16.332;2023-05-23T13:46:43;12.50;;;8.05;;
17842;SDS011;69286;48.222;16.332;2023-05-23T13:49:10;14.55;;;7.95;;
17842;SDS011;69286;48.222;16.332;2023-05-23T13:51:36;11.43;;;7.93;;
17842;SDS011;69286;48.222;16.332;2023-05-23T13:54:07;8.95;;;7.40;;
17842;SDS011;69286;48.222;16.332;2023-05-23T13:56:34;11.07;;;7.80;;
17842;SDS011;69286;48.222;16.332;2023-05-23T13:59:05;13.82;;;7.35;;
17842;SDS011;69286;48.222;16.332;2023-05-23T14:01:32;9.32;;;7.07;;
17842;SDS011;69286;48.222;16.332;2023-05-23T14:04:00;8.02;;;6.10;;
17842;SDS011;69286;48.222;16.332;2023-05-23T14:06:26;7.70;;;5.80;;
17842;SDS011;69286;48.222;16.332;2023-05-23T14:08:54;8.00;;;5.68;;
17842;SDS011;69286;48.222;16.332;2023-05-23T14:11:21;7.82;;;5.50;;
17842;SDS011;69286;48.222;16.332;2023-05-23T14:13:48;17.38;;;6.10;;
17842;SDS011;69286;48.222;16.332;2023-05-23T14:16:16;6.10;;;5.20;;
17842;SDS011;69286;48.222;16.332;2023-05-23T14:18:43;8.57;;;5.07;;
17842;SDS011;69286;48.222;16.332;2023-05-23T14:21:10;7.43;;;4.90;;
17842;SDS011;69286;48.222;16.332;2023-05-23T14:23:37;12.73;;;4.82;;
17842;SDS011;69286;48.222;16.332;2023-05-23T14:26:04;8.77;;;4.88;;
17842;SDS011;69286;48.222;16.332;2023-05-23T14:28:31;8.55;;;5.50;;
17842;SDS011;69286;48.222;16.332;2023-05-23T14:30:58;6.18;;;5.13;;
17842;SDS011;69286;48.222;16.332;2023-05-23T14:33:26;13.15;;;5.45;;
17842;SDS011;69286;48.222;16.332;2023-05-23T14:35:53;7.20;;;5.38;;